createdAt,value
2023-04-11T00:00:37.289Z,1.23
2023-04-11T00:03:04.179Z,1.25
2023-04-11T00:05:33.998Z,0.90
2023-04-11T00:08:00.794Z,1.10
2023-04-11T00:10:27.642Z,1.20
2023-04-11T00:12:56.847Z,1.60
2023-04-11T00:15:29.632Z,1.10
2023-04-11T00:17:58.609Z,1.27
2023-04-11T00:20:25.416Z,1.00
2023-04-11T00:22:54.258Z,1.30
2023-04-11T00:25:21.070Z,1.35
2023-04-11T00:27:47.782Z,1.02
2023-04-11T00:30:14.591Z,1.40
2023-04-11T00:32:41.330Z,0.88
2023-04-11T00:35:08.927Z,1.27
2023-04-11T00:37:36.372Z,1.42
2023-04-11T00:40:05.850Z,1.05
2023-04-11T00:42:33.341Z,1.00
2023-04-11T00:45:00.055Z,0.90
2023-04-11T00:47:26.823Z,1.10
2023-04-11T00:49:53.561Z,1.10
2023-04-11T00:52:20.286Z,1.00
2023-04-11T00:54:46.948Z,1.20
2023-04-11T00:57:13.640Z,1.13
2023-04-11T00:59:40.315Z,1.13
2023-04-11T01:02:08.237Z,1.10
2023-04-11T01:04:35.059Z,1.02
2023-04-11T01:07:06.278Z,1.08
2023-04-11T01:09:34.464Z,1.10
2023-04-11T01:12:04.161Z,1.05
2023-04-11T01:14:31.022Z,1.15
2023-04-11T01:16:58.258Z,1.08
2023-04-11T01:19:26.738Z,1.00
2023-04-11T01:21:54.422Z,1.10
2023-04-11T01:24:21.120Z,1.20
2023-04-11T01:26:47.822Z,1.27
2023-04-11T01:29:14.531Z,1.40
2023-04-11T01:31:41.326Z,1.00
2023-04-11T01:34:08.031Z,1.00
2023-04-11T01:36:34.792Z,0.90
2023-04-11T01:39:01.590Z,1.20
2023-04-11T01:41:28.304Z,1.40
2023-04-11T01:43:55.005Z,1.40
2023-04-11T01:46:21.920Z,1.55
2023-04-11T01:48:50.654Z,1.42
2023-04-11T01:51:17.365Z,1.00
2023-04-11T01:53:47.313Z,1.30
2023-04-11T01:56:14.768Z,1.58
2023-04-11T01:58:41.916Z,1.20
2023-04-11T02:01:08.749Z,1.23
2023-04-11T02:03:37.049Z,1.17
2023-04-11T02:06:04.179Z,1.63
2023-04-11T02:08:30.996Z,1.90
2023-04-11T02:10:57.693Z,1.58
2023-04-11T02:13:24.364Z,1.95
2023-04-11T02:15:51.173Z,2.20
2023-04-11T02:18:17.934Z,1.63
2023-04-11T02:24:25.518Z,1.70
2023-04-11T02:26:52.184Z,1.63
2023-04-11T02:29:18.916Z,1.63
2023-04-11T02:31:48.236Z,1.40
2023-04-11T02:34:15.021Z,1.80
2023-04-11T02:36:42.425Z,1.25
2023-04-11T02:39:09.079Z,1.25
2023-04-11T02:41:39.357Z,1.65
2023-04-11T02:44:06.209Z,1.60
2023-04-11T02:46:32.908Z,1.85
2023-04-11T02:48:59.568Z,1.48
2023-04-11T02:51:27.195Z,1.65
2023-04-11T02:53:53.997Z,1.52
2023-04-11T02:56:20.858Z,1.50
2023-04-11T02:58:47.983Z,1.35
2023-04-11T03:01:17.249Z,1.38
2023-04-11T03:03:44.605Z,1.30
2023-04-11T03:06:11.390Z,1.10
2023-04-11T03:08:38.254Z,0.90
2023-04-11T03:11:06.343Z,1.20
2023-04-11T03:13:33.029Z,1.20
2023-04-11T03:15:59.701Z,0.93
2023-04-11T03:18:26.539Z,1.00
2023-04-11T03:20:53.174Z,1.00
2023-04-11T03:23:19.835Z,1.10
2023-04-11T03:25:48.394Z,0.98
2023-04-11T03:28:15.367Z,1.13
2023-04-11T03:30:42.662Z,0.93
2023-04-11T03:33:09.631Z,0.93
2023-04-11T03:35:37.047Z,1.08
2023-04-11T03:38:04.037Z,0.80
2023-04-11T03:40:30.729Z,0.80
2023-04-11T03:42:57.489Z,0.90
2023-04-11T03:45:24.148Z,0.93
2023-04-11T03:47:50.977Z,1.63
2023-04-11T03:50:17.882Z,0.73
2023-04-11T03:52:44.579Z,0.70
2023-04-11T03:55:12.262Z,0.82
2023-04-11T03:57:39.004Z,0.65
2023-04-11T04:00:07.115Z,0.85
2023-04-11T04:02:33.944Z,0.85
2023-04-11T04:05:01.526Z,1.55
2023-04-11T04:07:28.779Z,1.13
2023-04-11T04:09:55.451Z,2.03
2023-04-11T04:12:22.232Z,1.23
2023-04-11T04:14:49.011Z,1.13
2023-04-11T04:17:16.324Z,0.90
2023-04-11T04:19:43.680Z,1.02
2023-04-11T04:22:12.080Z,1.00
2023-04-11T04:24:39.761Z,1.67
2023-04-11T04:27:09.245Z,1.58
2023-04-11T04:29:46.241Z,1.15
2023-04-11T04:32:14.868Z,0.80
2023-04-11T04:34:49.709Z,1.70
2023-04-11T04:37:23.956Z,0.98
2023-04-11T04:39:51.101Z,0.98
2023-04-11T04:42:17.805Z,1.17
2023-04-11T04:44:44.515Z,1.75
2023-04-11T04:47:11.209Z,0.80
2023-04-11T04:49:37.936Z,1.17
2023-04-11T04:52:05.026Z,1.20
2023-04-11T04:54:31.785Z,1.15
2023-04-11T04:56:58.690Z,1.00
2023-04-11T04:59:26.144Z,0.65
2023-04-11T05:01:53.853Z,1.00
2023-04-11T05:04:21.062Z,0.55
2023-04-11T05:06:47.947Z,0.77
2023-04-11T05:09:14.726Z,0.50
2023-04-11T05:11:41.389Z,0.50
2023-04-11T05:14:08.369Z,0.70
2023-04-11T05:16:35.068Z,0.73
2023-04-11T05:19:01.807Z,0.98
2023-04-11T05:21:28.593Z,0.70
2023-04-11T05:23:55.511Z,0.60
2023-04-11T05:26:22.287Z,0.40
2023-04-11T05:28:49.033Z,0.60
2023-04-11T05:31:17.082Z,0.90
2023-04-11T05:33:43.952Z,0.90
2023-04-11T05:36:14.515Z,0.88
2023-04-11T05:38:41.852Z,0.77
2023-04-11T05:41:09.239Z,0.55
2023-04-11T05:43:36.168Z,0.60
2023-04-11T05:46:03.548Z,1.00
2023-04-11T05:48:30.392Z,0.60
2023-04-11T05:51:00.236Z,1.45
2023-04-11T05:53:27.063Z,0.63
2023-04-11T05:55:53.746Z,0.70
2023-04-11T05:58:20.777Z,0.60
2023-04-11T06:00:47.430Z,0.90
2023-04-11T06:03:14.331Z,0.60
2023-04-11T06:05:41.393Z,0.80
2023-04-11T06:08:08.597Z,0.63
2023-04-11T06:10:35.769Z,0.65
2023-04-11T06:13:02.503Z,0.50
2023-04-11T06:15:29.554Z,1.00
2023-04-11T06:17:56.358Z,0.60
2023-04-11T06:20:25.356Z,0.60
2023-04-11T06:22:52.228Z,0.70
2023-04-11T06:25:20.344Z,0.75
2023-04-11T06:27:47.454Z,1.10
2023-04-11T06:30:14.451Z,1.13
2023-04-11T06:32:41.372Z,0.80
2023-04-11T06:35:08.619Z,1.08
2023-04-11T06:37:35.298Z,0.57
2023-04-11T06:40:02.144Z,0.70
2023-04-11T06:42:28.868Z,0.90
2023-04-11T06:44:56.254Z,1.15
2023-04-11T06:47:23.154Z,0.75
2023-04-11T06:49:49.822Z,0.50
2023-04-11T06:52:16.610Z,0.60
2023-04-11T06:54:43.416Z,0.90
2023-04-11T06:57:10.702Z,0.50
2023-04-11T06:59:37.559Z,0.93
2023-04-11T07:02:04.361Z,0.98
2023-04-11T07:04:31.475Z,0.70
2023-04-11T07:06:58.175Z,0.40
2023-04-11T07:09:24.829Z,0.60
2023-04-11T07:11:51.606Z,0.70
2023-04-11T07:14:18.539Z,0.70
2023-04-11T07:16:45.580Z,0.60
2023-04-11T07:19:12.443Z,0.75
2023-04-11T07:21:39.068Z,0.60
2023-04-11T07:24:10.599Z,0.80
2023-04-11T07:26:38.906Z,1.10
2023-04-11T07:29:09.557Z,0.80
2023-04-11T07:31:37.214Z,0.80
2023-04-11T07:34:03.969Z,0.95
2023-04-11T07:36:31.682Z,0.95
2023-04-11T07:38:59.955Z,0.95
2023-04-11T07:41:26.672Z,0.68
2023-04-11T07:43:53.409Z,1.33
2023-04-11T07:46:20.121Z,1.50
2023-04-11T07:48:46.772Z,0.90
2023-04-11T07:51:13.674Z,0.90
2023-04-11T07:53:40.430Z,0.80
2023-04-11T07:56:07.598Z,0.98
2023-04-11T07:58:34.262Z,1.27
2023-04-11T08:01:02.728Z,1.45
2023-04-11T08:03:30.103Z,0.80
2023-04-11T08:05:57.032Z,0.95
2023-04-11T08:08:23.789Z,1.30
2023-04-11T08:10:52.170Z,1.58
2023-04-11T08:13:19.117Z,1.27
2023-04-11T08:15:45.849Z,0.80
2023-04-11T08:18:12.629Z,1.17
2023-04-11T08:20:40.820Z,1.13
2023-04-11T08:23:08.890Z,1.35
2023-04-11T08:25:36.670Z,1.10
2023-04-11T08:28:05.200Z,0.85
2023-04-11T08:30:31.987Z,1.20
2023-04-11T08:32:58.710Z,1.35
2023-04-11T08:35:25.434Z,1.20
2023-04-11T08:37:52.109Z,1.23
2023-04-11T08:40:18.735Z,1.00
2023-04-11T08:42:45.488Z,2.15
2023-04-11T08:45:12.531Z,0.90
2023-04-11T08:47:39.276Z,1.10
2023-04-11T08:50:06.725Z,0.80
2023-04-11T08:52:33.632Z,1.08
2023-04-11T08:55:00.677Z,1.42
2023-04-11T08:57:31.697Z,1.98
2023-04-11T09:00:14.453Z,0.95
2023-04-11T09:02:57.804Z,1.35
2023-04-11T09:08:28.825Z,0.98
2023-04-11T09:11:01.326Z,0.73
2023-04-11T09:13:28.314Z,1.42
2023-04-11T09:16:09.420Z,0.80
2023-04-11T09:18:37.773Z,1.88
2023-04-11T09:21:06.437Z,1.10
2023-04-11T09:23:33.650Z,0.98
2023-04-11T09:26:00.346Z,0.75
2023-04-11T09:28:27.215Z,1.00
2023-04-11T09:30:55.411Z,0.80
2023-04-11T09:33:23.911Z,0.90
2023-04-11T09:35:52.841Z,1.02
2023-04-11T09:38:37.195Z,1.27
2023-04-11T09:41:04.687Z,0.73
2023-04-11T09:43:55.901Z,1.10
2023-04-11T09:46:22.852Z,1.20
2023-04-11T09:48:50.565Z,1.05
2023-04-11T09:51:34.134Z,0.70
2023-04-11T09:54:01.922Z,2.08
2023-04-11T09:56:29.101Z,0.95
2023-04-11T09:58:56.640Z,2.08
2023-04-11T10:01:24.527Z,0.68
2023-04-11T10:03:51.550Z,1.27
2023-04-11T10:06:54.132Z,1.48
2023-04-11T10:09:21.492Z,1.38
2023-04-11T10:11:48.184Z,0.90
2023-04-11T10:14:36.687Z,1.45
2023-04-11T10:17:16.271Z,1.50
2023-04-11T10:19:44.919Z,0.82
2023-04-11T10:22:32.696Z,1.25
2023-04-11T10:25:18.842Z,0.95
2023-04-11T10:27:50.295Z,1.15
2023-04-11T10:30:17.116Z,1.38
2023-04-11T10:33:16.191Z,1.45
2023-04-11T10:36:05.974Z,1.23
2023-04-11T10:38:43.443Z,1.55
2023-04-11T10:41:25.508Z,2.05
2023-04-11T10:43:52.515Z,0.88
2023-04-11T10:46:26.149Z,1.13
2023-04-11T10:49:02.832Z,1.00
2023-04-11T10:51:31.564Z,0.70
2023-04-11T10:54:02.642Z,0.90
2023-04-11T10:56:48.936Z,0.85
2023-04-11T10:59:31.141Z,1.02
2023-04-11T11:01:58.752Z,0.90
2023-04-11T11:04:32.777Z,1.00
2023-04-11T11:07:01.542Z,1.00
2023-04-11T11:09:29.092Z,0.98
2023-04-11T11:12:08.858Z,0.90
2023-04-11T11:14:36.258Z,0.75
2023-04-11T11:17:03.261Z,0.60
2023-04-11T11:19:31.169Z,0.70
2023-04-11T11:22:03.797Z,0.90
2023-04-11T11:24:31.090Z,1.65
2023-04-11T11:26:58.071Z,0.73
2023-04-11T11:29:33.988Z,0.82
2023-04-11T11:32:03.264Z,0.90
2023-04-11T11:34:31.668Z,0.70
2023-04-11T11:37:04.393Z,1.10
2023-04-11T11:39:31.497Z,0.75
2023-04-11T11:41:58.295Z,1.45
2023-04-11T11:47:05.721Z,1.02
2023-04-11T11:49:52.100Z,1.00
2023-04-11T11:52:40.589Z,0.80
2023-04-11T11:55:27.649Z,0.90
2023-04-11T11:57:54.505Z,0.88
2023-04-11T12:00:25.211Z,1.05
2023-04-11T12:02:53.295Z,0.70
2023-04-11T12:05:20.184Z,0.63
2023-04-11T12:07:46.895Z,1.00
2023-04-11T12:10:17.291Z,0.88
2023-04-11T12:12:52.892Z,0.93
2023-04-11T12:15:22.256Z,1.02
2023-04-11T12:17:52.779Z,1.08
2023-04-11T12:20:26.733Z,1.00
2023-04-11T12:22:54.846Z,1.20
2023-04-11T12:25:22.494Z,1.00
2023-04-11T12:27:49.222Z,1.75
2023-04-11T12:30:16.022Z,0.90
2023-04-11T12:32:43.431Z,0.95
2023-04-11T12:35:10.686Z,1.30
2023-04-11T12:37:37.793Z,1.00
2023-04-11T12:40:12.697Z,0.90
2023-04-11T12:42:53.274Z,1.45
2023-04-11T12:45:22.299Z,0.65
2023-04-11T12:47:49.014Z,0.50
2023-04-11T12:50:15.899Z,0.95
2023-04-11T12:52:42.617Z,0.90
2023-04-11T12:55:09.810Z,1.20
2023-04-11T12:57:36.848Z,1.10
2023-04-11T13:00:07.841Z,0.90
2023-04-11T13:02:42.225Z,1.30
2023-04-11T13:05:11.942Z,0.82
2023-04-11T13:07:39.321Z,1.33
2023-04-11T13:10:09.833Z,1.10
2023-04-11T13:12:41.693Z,1.52
2023-04-11T13:15:09.912Z,0.87
2023-04-11T13:17:36.925Z,1.02
2023-04-11T13:20:08.024Z,0.70
2023-04-11T13:22:34.720Z,0.70
2023-04-11T13:25:01.390Z,1.25
2023-04-11T13:27:28.082Z,0.75
2023-04-11T13:29:54.856Z,0.63
2023-04-11T13:32:21.676Z,1.00
2023-04-11T13:34:48.364Z,1.20
2023-04-11T13:37:15.098Z,1.00
2023-04-11T13:39:42.678Z,1.08
2023-04-11T13:42:10.189Z,1.02
2023-04-11T13:44:36.892Z,0.77
2023-04-11T13:47:03.788Z,0.90
2023-04-11T13:49:30.503Z,0.80
2023-04-11T13:51:57.214Z,0.93
2023-04-11T13:54:23.913Z,1.08
2023-04-11T13:56:51.202Z,1.83
2023-04-11T13:59:18.062Z,1.00
2023-04-11T14:01:44.829Z,1.38
2023-04-11T14:04:12.106Z,0.88
2023-04-11T14:06:39.581Z,1.10
2023-04-11T14:09:06.317Z,1.48
2023-04-11T14:11:33.033Z,1.65
2023-04-11T14:13:59.726Z,0.93
2023-04-11T14:16:26.453Z,0.98
2023-04-11T14:18:53.133Z,1.52
2023-04-11T14:21:19.770Z,0.90
2023-04-11T14:23:46.472Z,1.50
2023-04-11T14:26:13.186Z,1.08
2023-04-11T14:28:39.847Z,1.50
2023-04-11T14:31:07.101Z,1.05
2023-04-11T14:33:33.913Z,1.13
2023-04-11T14:36:00.853Z,0.80
2023-04-11T14:38:27.526Z,1.00
2023-04-11T14:40:54.217Z,1.10
2023-04-11T14:43:20.875Z,1.20
2023-04-11T14:45:47.948Z,0.80
2023-04-11T14:48:14.667Z,1.05
2023-04-11T14:50:41.357Z,0.80
2023-04-11T14:53:09.262Z,0.80
2023-04-11T14:55:39.159Z,0.88
2023-04-11T14:58:06.315Z,1.30
2023-04-11T15:00:32.986Z,0.73
2023-04-11T15:02:59.901Z,1.30
2023-04-11T15:05:26.811Z,0.90
2023-04-11T15:07:53.818Z,1.00
2023-04-11T15:10:22.047Z,1.50
2023-04-11T15:12:49.005Z,1.10
2023-04-11T15:15:16.066Z,0.77
2023-04-11T15:17:46.376Z,0.50
2023-04-11T15:20:14.673Z,0.65
2023-04-11T15:22:42.677Z,0.50
2023-04-11T15:25:11.716Z,0.77
2023-04-11T15:27:39.119Z,1.10
2023-04-11T15:30:07.570Z,0.77
2023-04-11T15:32:34.468Z,0.60
2023-04-11T15:35:01.341Z,0.98
2023-04-11T15:37:28.191Z,1.05
2023-04-11T15:39:55.531Z,1.25
2023-04-11T15:42:22.291Z,1.40
2023-04-11T15:44:48.942Z,1.27
2023-04-11T15:47:16.744Z,1.40
2023-04-11T15:49:43.457Z,0.98
2023-04-11T15:52:10.098Z,1.13
2023-04-11T15:54:36.902Z,0.90
2023-04-11T15:57:03.795Z,1.20
2023-04-11T15:59:30.922Z,1.10
2023-04-11T16:01:57.750Z,1.20
2023-04-11T16:04:25.722Z,0.98
2023-04-11T16:06:52.672Z,1.02
2023-04-11T16:09:19.408Z,1.20
2023-04-11T16:11:46.112Z,0.95
2023-04-11T16:14:12.959Z,0.85
2023-04-11T16:16:39.725Z,1.13
2023-04-11T16:19:07.152Z,0.93
2023-04-11T16:21:33.790Z,0.98
2023-04-11T16:24:00.641Z,0.90
2023-04-11T16:26:27.652Z,1.45
2023-04-11T16:28:54.370Z,1.35
2023-04-11T16:31:24.718Z,0.90
2023-04-11T16:33:55.406Z,1.20
2023-04-11T16:36:22.504Z,1.10
2023-04-11T16:38:52.103Z,1.30
2023-04-11T16:41:18.841Z,1.02
2023-04-11T16:43:45.701Z,0.70
2023-04-11T16:46:15.612Z,0.98
2023-04-11T16:48:43.038Z,0.75
2023-04-11T16:51:11.272Z,1.10
2023-04-11T16:53:38.704Z,0.90
2023-04-11T16:56:06.011Z,1.02
2023-04-11T16:58:32.813Z,1.02
2023-04-11T17:01:00.147Z,1.20
2023-04-11T17:03:27.418Z,1.60
2023-04-11T17:05:54.214Z,1.08
2023-04-11T17:08:21.057Z,1.38
2023-04-11T17:10:47.765Z,1.00
2023-04-11T17:13:16.104Z,1.77
2023-04-11T17:15:42.827Z,1.23
2023-04-11T17:18:09.584Z,1.25
2023-04-11T17:20:36.740Z,0.93
2023-04-11T17:23:03.430Z,1.45
2023-04-11T17:25:30.227Z,1.52
2023-04-11T17:27:57.577Z,1.05
2023-04-11T17:30:24.342Z,2.13
2023-04-11T17:32:51.076Z,1.10
2023-04-11T17:35:17.834Z,1.55
2023-04-11T17:37:44.530Z,1.40
2023-04-11T17:40:15.331Z,1.42
2023-04-11T17:42:42.086Z,1.73
2023-04-11T17:47:43.065Z,2.85
2023-04-11T17:50:11.267Z,2.33
2023-04-11T17:52:39.592Z,1.65
2023-04-11T17:55:07.648Z,1.20
2023-04-11T17:57:34.799Z,1.27
2023-04-11T18:00:02.221Z,2.05
2023-04-11T18:02:29.445Z,1.42
2023-04-11T18:04:56.286Z,1.10
2023-04-11T18:07:24.607Z,1.50
2023-04-11T18:09:51.572Z,1.75
2023-04-11T18:12:18.237Z,1.67
2023-04-11T18:14:45.032Z,1.63
2023-04-11T18:17:11.873Z,1.90
2023-04-11T18:19:38.586Z,1.92
2023-04-11T18:22:05.206Z,2.28
2023-04-11T18:24:31.924Z,1.70
2023-04-11T18:26:58.575Z,1.88
2023-04-11T18:29:25.390Z,2.08
2023-04-11T18:31:52.106Z,3.38
2023-04-11T18:34:18.916Z,2.40
2023-04-11T18:36:47.805Z,1.80
2023-04-11T18:39:14.986Z,2.00
2023-04-11T18:41:41.707Z,1.50
2023-04-11T18:44:10.042Z,1.90
2023-04-11T18:46:37.090Z,1.55
2023-04-11T18:49:04.954Z,2.05
2023-04-11T18:51:32.492Z,1.90
2023-04-11T18:53:59.168Z,1.88
2023-04-11T18:56:27.135Z,2.05
2023-04-11T18:58:56.458Z,3.10
2023-04-11T19:01:29.720Z,3.75
2023-04-11T19:03:57.985Z,2.83
2023-04-11T19:06:25.158Z,2.67
2023-04-11T19:08:52.209Z,2.60
2023-04-11T19:11:19.585Z,2.10
2023-04-11T19:13:46.338Z,2.10
2023-04-11T19:16:13.071Z,1.58
2023-04-11T19:18:39.868Z,1.85
2023-04-11T19:21:06.654Z,1.40
2023-04-11T19:23:33.466Z,2.05
2023-04-11T19:26:00.763Z,3.45
2023-04-11T19:28:27.452Z,2.95
2023-04-11T19:30:54.108Z,3.10
2023-04-11T19:33:20.792Z,2.50
2023-04-11T19:35:47.711Z,2.47
2023-04-11T19:38:14.543Z,2.25
2023-04-11T19:40:41.239Z,2.15
2023-04-11T19:43:08.050Z,2.35
2023-04-11T19:45:34.756Z,1.85
2023-04-11T19:48:01.569Z,1.83
2023-04-11T19:50:29.472Z,2.03
2023-04-11T19:52:57.027Z,1.90
2023-04-11T19:55:24.760Z,1.80
2023-04-11T19:57:51.603Z,1.67
2023-04-11T20:00:18.527Z,2.00
2023-04-11T20:02:46.909Z,1.65
2023-04-11T20:05:14.936Z,1.60
2023-04-11T20:07:42.597Z,1.63
2023-04-11T20:10:10.395Z,1.85
2023-04-11T20:12:37.306Z,2.00
2023-04-11T20:15:04.300Z,1.70
2023-04-11T20:17:31.278Z,2.13
2023-04-11T20:19:58.002Z,1.77
2023-04-11T20:22:25.813Z,2.08
2023-04-11T20:24:52.475Z,1.92
2023-04-11T20:27:19.172Z,1.85
2023-04-11T20:29:46.129Z,1.80
2023-04-11T20:32:12.819Z,2.05
2023-04-11T20:34:39.458Z,2.30
2023-04-11T20:37:07.853Z,2.60
2023-04-11T20:39:34.580Z,3.33
2023-04-11T20:42:01.295Z,3.58
2023-04-11T20:44:28.052Z,2.78
2023-04-11T20:46:54.990Z,4.47
2023-04-11T20:49:21.727Z,4.40
2023-04-11T20:51:48.429Z,4.88
2023-04-11T20:54:16.213Z,4.43
2023-04-11T20:56:43.438Z,4.00
2023-04-11T20:59:12.001Z,5.07
2023-04-11T21:01:38.841Z,5.53
2023-04-11T21:04:06.421Z,4.80
2023-04-11T21:06:33.286Z,5.13
2023-04-11T21:09:00.430Z,4.68
2023-04-11T21:11:27.237Z,4.28
2023-04-11T21:13:54.819Z,3.38
2023-04-11T21:16:22.015Z,3.53
2023-04-11T21:18:49.040Z,3.13
2023-04-11T21:21:15.948Z,3.20
2023-04-11T21:23:43.593Z,3.08
2023-04-11T21:26:10.355Z,2.80
2023-04-11T21:28:37.074Z,3.10
2023-04-11T21:31:03.915Z,3.80
2023-04-11T21:33:30.743Z,3.40
2023-04-11T21:35:57.486Z,2.90
2023-04-11T21:38:24.244Z,3.13
2023-04-11T21:40:51.351Z,3.45
2023-04-11T21:43:18.121Z,3.17
2023-04-11T21:45:44.808Z,2.60
2023-04-11T21:48:11.684Z,2.15
2023-04-11T21:50:38.481Z,2.80
2023-04-11T21:53:05.372Z,2.78
2023-04-11T21:55:32.027Z,2.70
2023-04-11T21:57:59.092Z,3.42
2023-04-11T22:00:25.974Z,2.72
2023-04-11T22:02:53.512Z,2.80
2023-04-11T22:05:21.692Z,2.95
2023-04-11T22:07:50.685Z,3.15
2023-04-11T22:10:22.703Z,3.25
2023-04-11T22:12:50.288Z,3.25
2023-04-11T22:15:18.423Z,2.60
2023-04-11T22:17:50.639Z,2.70
2023-04-11T22:20:18.457Z,3.10
2023-04-11T22:22:45.370Z,2.47
2023-04-11T22:25:12.139Z,3.08
2023-04-11T22:27:38.920Z,2.33
2023-04-11T22:30:07.053Z,3.45
2023-04-11T22:32:34.112Z,2.50
2023-04-11T22:35:01.339Z,2.20
2023-04-11T22:37:28.109Z,2.25
2023-04-11T22:39:55.157Z,2.88
2023-04-11T22:42:22.052Z,2.65
2023-04-11T22:44:48.703Z,2.53
2023-04-11T22:47:16.485Z,2.35
2023-04-11T22:49:45.141Z,2.50
2023-04-11T22:52:14.456Z,3.03
2023-04-11T22:54:42.868Z,2.72
2023-04-11T22:57:09.979Z,2.33
2023-04-11T22:59:36.851Z,2.38
2023-04-11T23:02:03.767Z,2.08
2023-04-11T23:04:31.709Z,2.72
2023-04-11T23:06:58.569Z,2.35
2023-04-11T23:09:25.413Z,2.55
2023-04-11T23:11:52.320Z,2.47
2023-04-11T23:14:21.102Z,2.33
2023-04-11T23:16:48.157Z,2.00
2023-04-11T23:19:15.084Z,2.00
2023-04-11T23:21:42.229Z,2.70
2023-04-11T23:24:10.078Z,2.58
2023-04-11T23:26:37.255Z,1.98
2023-04-11T23:29:04.399Z,2.40
2023-04-11T23:31:34.300Z,2.15
2023-04-11T23:34:01.274Z,2.50
2023-04-11T23:36:28.166Z,2.35
2023-04-11T23:38:54.983Z,2.88
2023-04-11T23:41:21.703Z,2.20
2023-04-11T23:43:48.424Z,2.30
2023-04-11T23:46:15.262Z,3.10
2023-04-11T23:48:42.475Z,2.60
2023-04-11T23:51:09.118Z,2.40
2023-04-11T23:53:35.816Z,2.30
2023-04-11T23:56:02.482Z,2.47
2023-04-11T23:58:29.167Z,2.05
